Soaring Guidance
Issued by NWS Reno, NV

Home | Current Version | Previous Version | Text Only | Print | Product List | Glossary On
Versions: 1 2 3 4 5 6 7 8 9 10 11 12 13 14
647
UXUS97 KREV 301356
SRGREV

SOARING FORECAST
NATIONAL WEATHER SERVICE - RENO NV
700 AM PDT THU MAR 30 2017

THIS SOARING FORECAST IS FOR THE EASTERN SIERRA AND WESTERN NEVADA
WITH SPECIFIC INDICES FOR THE GREATER RENO AREA.

THIS FORECAST IS PREPARED DAILY BY 700 AM AND IS NOT UPDATED.

FOR CURRENT FLIGHT CONDITIONS...FORECASTS...AND ADVISORIES...ACCESS
YOUR LOCAL BRIEFING OUTLET OR FLIGHT SERVICE STATION.

*******************************************************************
FORECASTED LOCAL INDICES FOR RENO:        TODAY     YESTERDAY
FORECASTED MAX TEMP AT RENO (DEG F).....     51          71
FORECASTED TRIGGER TEMPERATURE (DEG F)..     53          63
   EXCEEDED YESTERDAY BY 1355 PM PDT
FORECASTED MAXIMUM ALTITUDE (FT MSL)....   7000       11800
FORECASTED SOARING INDEX (FPM)..........    120         564
FORECASTED K-INDEX.........VALID 18Z....     26          18
FORECASTED K-INDEX.........VALID 00Z....     22          25
FORECASTED LIFTED INDEX....VALID 18Z....      2           4
FORECASTED LIFTED INDEX....VALID 00Z....      5           0

AFTERNOON WINDS ALOFT FORECAST
MSL (FT) WIND/TEMP
9000  3432/-09
10000 3434/-11
12000 3538/-17
14000 3443/-19
16000 3449/-22
18000 3467/-25
24000 8432/-31
30000 8431/-44
34000 8411/-50
39000 3371/-52

SLIDE MOUNTAIN DATA:
     DATE       TIME     TEMP  DEWPT   RH         WIND (MPH)
                        (F)   (F)           | DIR  SPEED GUST
2017-03-30    05:30      29    29    100    | 198   49   64
2017-03-30    05:20      29    29    100    | 183   38   53
2017-03-30    05:00      28    28    100    | 184   38   51
2017-03-30    04:50      28    28     99    | 184   41   54

RENO TAF FORECAST:
KRNO 301123Z 3012/3112 19014G26KT P6SM VCSH FEW030 SCT050 BKN090
      WS020/29045KT
     FM301400 29022G38KT P6SM -SHRA BKN035 OVC080
     FM301700 33024G36KT P6SM VCSH SCT035 BKN060
     FM302200 35019G30KT P6SM SCT060 BKN090
     FM310400 36014G24KT P6SM SCT070 BKN140
     FM311000 32011KT P6SM SCT140

CARSON CITY TAF FORECAST:
KCXP 301123Z 3012/3112 20011KT P6SM -SHRA FEW025 BKN035 OVC060
      WS020/28040KT
     FM301300 24014G25KT P6SM VCSH SCT035 BKN060 WS020/29045KT
     FM301500 29022G36KT P6SM -SHRA BKN030 OVC060
     FM301900 32022G30KT P6SM VCSH BKN035 BKN060
     FM302300 34018G29KT P6SM SCT040 BKN070
     FM310400 35013G24KT P6SM SCT070 BKN140
     FM311000 03011KT P6SM SCT140

OUTLOOK FOR THE RENO-CARSON CITY-MINDEN AREA:
.FRIDAY...PARTLY CLOUDY IN THE MORNING THEN CLEARING. HIGHS 54 TO
59. NORTH WINDS 10 TO 15 MPH.

SUNRISE AND SUNSET
MARCH 30 2017.........SUNRISE   646 AM PDT   SUNSET   721 PM PDT
MARCH 31 2017.........SUNRISE   644 AM PDT   SUNSET   722 PM PDT



USA.gov is the U.S. government's official web portal to all federal, state and local government web resources and services.